logo
Search for airport 
image banner adimage banner adimage banner ad
image banner ad

EDFZ - Mainz/Finthen

Located in Mainz, Germany

ICAO - EDFZ, IATA - QMZ

Data provided by Airmate  

General information

Coordinates: N49°58'7" E8°8'53"
Elevation is 760 feet MSL.
Magnetic variation is 3.0000° East
Rated:
View ratings:
[VIEW]
View others Airports in Rhineland-Palatinate

Operational data

Special qualification required
Current time UTC:
Current local time:
Weather at : ETOU - Wiesbaden Aaf ( 16 km )
METAR: ETOU 171255Z AUTO 25006KT 9999 SCT075 OVC090 24/12 A3015 RMK AO2 SLP211 T02370120 $
TAF: TAF ETOU 170400Z 1704/1810 25006KT 9999 SCT050 BKN080 QNH3009INS BECMG 1709/1710 26006KT 9999 BKN030 QNH3012INS BECMG 1801/1802 VRB06KT 9999 SCT030 QNH3016INS TX24/1715Z TN17/1803Z
View NOTAMs / SUP AIP / TFR affecting this airport [VIEW]
Communications frequencies: [VIEW]

Runways:

RWY identifierQFULength (ft)Width (ft)SurfaceLDA (ft)
0775°328172CONC3281
25255°328172CONC3281
07G77°3281131GRASS3281
25G257°3281131GRASS3281

Airport contact information

Address: Mainz Germany

Other aviation service providers

Aviation club (not for profit)

Luftfahrtverein Mainz E.V.

Luftfahrtverein Mainz E.V.
lfvmz@t-online.de+4961315545024

Satellite view of EDFZ